createdAt,value
2019-03-31T00:02:29.931Z,95.80
2019-03-31T00:05:06.040Z,95.70
2019-03-31T00:07:48.469Z,95.70
2019-03-31T00:10:31.228Z,95.70
2019-03-31T00:12:59.060Z,95.70
2019-03-31T00:15:41.061Z,95.60
2019-03-31T00:18:24.173Z,95.70
2019-03-31T00:21:06.513Z,95.90
2019-03-31T00:23:35.250Z,95.90
2019-03-31T00:28:45.964Z,96.00
2019-03-31T00:31:35.760Z,96.10
2019-03-31T00:34:24.474Z,96.20
2019-03-31T00:37:00.872Z,96.30
2019-03-31T00:39:43.803Z,96.50
2019-03-31T00:42:26.535Z,96.60
2019-03-31T00:45:02.902Z,96.70
2019-03-31T00:47:44.797Z,97.10
2019-03-31T00:50:13.456Z,96.80
2019-03-31T00:52:55.515Z,96.90
2019-03-31T00:55:44.725Z,96.90
2019-03-31T00:58:20.294Z,97.00
2019-03-31T01:06:29.558Z,97.00
2019-03-31T01:09:29.296Z,97.10
2019-03-31T01:11:58.882Z,97.20
2019-03-31T01:14:35.049Z,97.30
2019-03-31T01:17:07.542Z,97.40
2019-03-31T01:19:44.295Z,97.50
2019-03-31T01:22:13.878Z,97.50
2019-03-31T01:24:49.849Z,97.60
2019-03-31T01:27:19.748Z,97.60
2019-03-31T01:29:55.617Z,97.60
2019-03-31T01:32:25.375Z,97.70
2019-03-31T01:34:54.882Z,97.80
2019-03-31T01:37:31.075Z,97.80
2019-03-31T01:40:00.749Z,97.80
2019-03-31T01:42:37.013Z,97.80
2019-03-31T01:45:10.175Z,97.80
2019-03-31T01:47:46.878Z,97.80
2019-03-31T01:50:16.627Z,97.90
2019-03-31T01:52:52.605Z,98.00
2019-03-31T01:55:22.128Z,98.00
2019-03-31T01:57:58.681Z,98.10
2019-03-31T02:00:44.736Z,98.20
2019-03-31T02:03:20.613Z,98.20
2019-03-31T02:05:56.603Z,98.20
2019-03-31T02:08:38.756Z,98.20
2019-03-31T02:11:14.938Z,98.10
2019-03-31T02:13:51.178Z,98.10
2019-03-31T02:16:26.902Z,98.40
2019-03-31T02:19:09.801Z,98.50
2019-03-31T02:21:53.338Z,98.50
2019-03-31T02:24:28.943Z,98.50
2019-03-31T02:26:58.389Z,98.40
2019-03-31T02:29:40.766Z,98.30
2019-03-31T02:32:23.960Z,98.30
2019-03-31T02:34:54.788Z,98.30
2019-03-31T02:37:30.720Z,98.30
2019-03-31T02:40:06.954Z,98.30
2019-03-31T02:42:43.286Z,98.50
2019-03-31T02:45:26.530Z,98.60
2019-03-31T02:48:09.535Z,98.50
2019-03-31T02:50:56.683Z,98.50
2019-03-31T02:53:32.308Z,98.60
2019-03-31T02:56:15.789Z,98.60
2019-03-31T02:58:54.810Z,98.40
2019-03-31T03:01:33.653Z,98.40
2019-03-31T03:04:17.428Z,98.30
2019-03-31T03:06:49.058Z,98.30
2019-03-31T03:09:28.522Z,98.40
2019-03-31T03:12:07.356Z,98.40
2019-03-31T03:14:51.777Z,98.50
2019-03-31T03:17:27.344Z,98.50
2019-03-31T03:20:04.005Z,98.50
2019-03-31T03:22:40.573Z,98.50
2019-03-31T03:25:16.231Z,98.40
2019-03-31T03:27:52.036Z,98.50
2019-03-31T03:30:34.680Z,98.50
2019-03-31T03:33:15.580Z,98.60
2019-03-31T03:35:53.945Z,98.60
2019-03-31T03:38:29.797Z,98.60
2019-03-31T03:41:13.242Z,98.80
2019-03-31T03:43:55.695Z,98.90
2019-03-31T03:46:34.289Z,98.90
2019-03-31T03:49:16.803Z,98.90
2019-03-31T03:51:59.778Z,99.00
2019-03-31T03:54:36.157Z,99.10
2019-03-31T03:57:12.013Z,99.20
2019-03-31T04:00:00.868Z,99.20
2019-03-31T04:02:30.327Z,99.30
2019-03-31T04:05:13.557Z,99.30
2019-03-31T04:07:55.398Z,99.40
2019-03-31T04:10:54.483Z,99.30
2019-03-31T04:13:30.257Z,99.40
2019-03-31T04:16:13.356Z,99.50
2019-03-31T04:19:02.384Z,99.50
2019-03-31T04:21:44.364Z,99.60
2019-03-31T04:24:27.557Z,99.60
2019-03-31T04:27:18.900Z,99.80
2019-03-31T04:30:00.846Z,99.90
2019-03-31T04:32:38.791Z,99.90
2019-03-31T04:35:22.077Z,99.90
2019-03-31T04:38:04.736Z,99.90
2019-03-31T04:40:47.253Z,99.90
2019-03-31T04:43:30.091Z,99.90
2019-03-31T04:46:12.025Z,99.90
2019-03-31T04:48:54.748Z,99.90
2019-03-31T04:51:37.391Z,99.90
2019-03-31T04:54:13.846Z,99.90
2019-03-31T04:56:49.730Z,99.70
2019-03-31T04:59:32.390Z,99.50
2019-03-31T05:05:10.265Z,99.50
2019-03-31T05:07:39.780Z,99.20
2019-03-31T05:10:15.756Z,99.10
2019-03-31T05:12:51.461Z,99.00
2019-03-31T05:15:27.277Z,99.10
2019-03-31T05:18:03.740Z,99.10
2019-03-31T05:20:40.300Z,99.00
2019-03-31T05:23:22.865Z,98.90
2019-03-31T05:25:52.455Z,98.80
2019-03-31T05:28:28.314Z,98.70
2019-03-31T05:30:57.898Z,98.70
2019-03-31T05:33:34.002Z,98.50
2019-03-31T05:36:03.534Z,98.50
2019-03-31T05:38:39.628Z,98.40
2019-03-31T05:41:09.082Z,98.30
2019-03-31T05:43:44.858Z,98.30
2019-03-31T05:46:14.386Z,98.20
2019-03-31T05:48:50.053Z,98.10
2019-03-31T05:51:19.570Z,97.90
2019-03-31T05:53:55.429Z,97.90
2019-03-31T05:56:24.890Z,97.70
2019-03-31T05:59:00.721Z,97.60
2019-03-31T06:01:30.390Z,97.50
2019-03-31T06:04:12.482Z,97.40
2019-03-31T06:06:48.095Z,97.40
2019-03-31T06:09:30.234Z,97.40
2019-03-31T06:11:59.760Z,97.20
2019-03-31T06:14:42.075Z,97.20
2019-03-31T06:17:18.094Z,97.00
2019-03-31T06:20:00.610Z,97.00
2019-03-31T06:22:36.642Z,96.90
2019-03-31T06:25:20.619Z,96.90
2019-03-31T06:27:56.732Z,97.00
2019-03-31T06:30:32.591Z,96.90
2019-03-31T06:33:08.380Z,96.60
2019-03-31T06:35:51.638Z,96.60
2019-03-31T06:38:27.972Z,96.40
2019-03-31T06:41:04.454Z,96.40
2019-03-31T06:43:40.160Z,96.20
2019-03-31T06:46:16.217Z,96.30
2019-03-31T06:48:59.202Z,96.00
2019-03-31T06:51:48.260Z,96.30
2019-03-31T06:54:31.033Z,96.00
2019-03-31T06:57:06.810Z,96.20
2019-03-31T06:59:49.825Z,95.90
2019-03-31T07:02:31.936Z,95.60
2019-03-31T07:05:15.613Z,95.20
2019-03-31T07:07:51.597Z,95.20
2019-03-31T07:10:34.379Z,95.10
2019-03-31T07:13:10.994Z,95.10
2019-03-31T07:15:53.560Z,94.70
2019-03-31T07:18:42.972Z,94.80
2019-03-31T07:21:25.820Z,94.90
2019-03-31T07:24:08.566Z,94.30
2019-03-31T07:26:44.044Z,94.00
2019-03-31T07:29:26.851Z,94.00
2019-03-31T07:32:03.044Z,94.10
2019-03-31T07:34:45.731Z,94.30
2019-03-31T07:37:27.371Z,93.70
2019-03-31T07:40:10.377Z,93.70
2019-03-31T07:42:46.700Z,93.50
2019-03-31T07:45:30.719Z,93.00
2019-03-31T07:48:08.133Z,93.00
2019-03-31T07:50:50.612Z,92.70
2019-03-31T07:53:39.814Z,92.00
2019-03-31T07:56:16.398Z,92.00
2019-03-31T07:58:59.404Z,91.70
2019-03-31T08:01:42.577Z,90.80
2019-03-31T08:04:19.246Z,90.10
2019-03-31T08:07:02.300Z,89.20
2019-03-31T08:09:45.485Z,88.30
2019-03-31T08:12:28.575Z,89.50
2019-03-31T08:15:04.109Z,89.50
2019-03-31T08:17:46.466Z,88.30
2019-03-31T08:20:25.181Z,88.10
2019-03-31T08:23:07.407Z,88.20
2019-03-31T08:25:42.919Z,89.70
2019-03-31T08:28:25.944Z,89.80
2019-03-31T08:31:01.964Z,87.70
2019-03-31T08:33:43.934Z,86.10
2019-03-31T08:36:19.631Z,84.80
2019-03-31T08:39:01.970Z,83.60
2019-03-31T08:41:44.282Z,83.50
2019-03-31T08:44:33.254Z,83.40
2019-03-31T08:47:29.216Z,83.50
2019-03-31T08:50:11.462Z,83.90
2019-03-31T08:53:01.163Z,83.50
2019-03-31T08:55:37.651Z,82.70
2019-03-31T08:58:20.786Z,81.80
2019-03-31T09:00:58.387Z,80.50
2019-03-31T09:03:41.127Z,78.40
2019-03-31T09:06:23.944Z,79.20
2019-03-31T09:09:00.257Z,77.60
2019-03-31T09:11:42.841Z,76.50
2019-03-31T09:14:19.587Z,76.20
2019-03-31T09:17:02.247Z,77.00
2019-03-31T09:19:38.386Z,76.20
2019-03-31T09:22:21.080Z,76.80
2019-03-31T09:25:03.705Z,74.70
2019-03-31T09:27:40.201Z,74.60
2019-03-31T09:30:25.331Z,74.20
2019-03-31T09:33:01.245Z,75.00
2019-03-31T09:35:44.472Z,75.20
2019-03-31T09:38:34.297Z,74.80
2019-03-31T09:41:09.960Z,74.80
2019-03-31T09:43:52.826Z,72.00
2019-03-31T09:46:28.627Z,72.60
2019-03-31T09:49:11.600Z,71.90
2019-03-31T09:51:54.887Z,71.40
2019-03-31T09:54:37.917Z,72.10
2019-03-31T09:57:13.642Z,72.10
2019-03-31T09:59:49.218Z,72.10
2019-03-31T10:02:32.270Z,72.00
2019-03-31T10:05:23.070Z,71.90
2019-03-31T10:08:05.997Z,72.10
2019-03-31T10:10:42.628Z,72.20
2019-03-31T10:13:26.513Z,73.10
2019-03-31T10:16:09.000Z,73.40
2019-03-31T10:18:52.130Z,73.70
2019-03-31T10:21:28.342Z,72.30
2019-03-31T10:24:11.205Z,70.80
2019-03-31T10:26:47.018Z,69.50
2019-03-31T10:29:29.554Z,68.90
2019-03-31T10:32:12.427Z,68.60
2019-03-31T10:34:55.346Z,68.70
2019-03-31T10:37:37.277Z,67.30
2019-03-31T10:40:15.596Z,68.80
2019-03-31T10:42:57.968Z,68.50
2019-03-31T10:45:34.168Z,69.90
2019-03-31T10:48:20.946Z,68.90
2019-03-31T10:50:55.088Z,68.20
2019-03-31T10:53:38.999Z,66.90
2019-03-31T10:56:21.408Z,66.50
2019-03-31T10:59:03.658Z,68.80
2019-03-31T11:01:46.586Z,70.20
2019-03-31T11:04:28.979Z,68.50
2019-03-31T11:07:05.134Z,67.40
2019-03-31T11:09:41.029Z,67.90
2019-03-31T11:12:23.653Z,67.90
2019-03-31T11:15:06.546Z,68.60
2019-03-31T11:17:49.724Z,67.40
2019-03-31T11:20:32.958Z,68.30
2019-03-31T11:23:28.245Z,68.20
2019-03-31T11:26:10.108Z,67.10
2019-03-31T11:28:53.048Z,68.00
2019-03-31T11:31:28.698Z,69.00
2019-03-31T11:34:10.815Z,67.30
2019-03-31T11:36:53.320Z,66.90
2019-03-31T11:39:29.015Z,67.00
2019-03-31T11:42:11.541Z,67.60
2019-03-31T11:44:47.624Z,67.70
2019-03-31T11:47:30.850Z,66.50
2019-03-31T11:50:13.912Z,66.80
2019-03-31T11:52:56.583Z,66.50
2019-03-31T11:55:39.629Z,68.30
2019-03-31T11:58:22.462Z,66.20
2019-03-31T12:00:59.818Z,67.40
2019-03-31T12:03:35.909Z,68.40
2019-03-31T12:06:25.844Z,66.50
2019-03-31T12:09:08.543Z,66.60
2019-03-31T12:11:45.769Z,66.60
2019-03-31T12:14:29.510Z,66.50
2019-03-31T12:17:05.934Z,64.90
2019-03-31T12:19:49.035Z,66.40
2019-03-31T12:22:32.099Z,65.50
2019-03-31T12:25:22.174Z,65.70
2019-03-31T12:27:58.075Z,66.10
2019-03-31T12:30:44.218Z,65.20
2019-03-31T12:33:27.367Z,63.10
2019-03-31T12:36:09.810Z,58.10
2019-03-31T12:38:45.753Z,54.30
2019-03-31T12:41:28.903Z,54.70
2019-03-31T12:44:04.841Z,53.70
2019-03-31T12:46:47.586Z,54.90
2019-03-31T12:49:29.860Z,55.70
2019-03-31T12:52:06.321Z,57.90
2019-03-31T12:54:49.905Z,59.50
2019-03-31T12:57:26.307Z,60.00
2019-03-31T13:00:08.878Z,60.40
2019-03-31T13:02:51.678Z,61.70
2019-03-31T13:05:35.148Z,61.60
2019-03-31T13:08:18.024Z,58.90
2019-03-31T13:10:53.527Z,59.30
2019-03-31T13:13:35.942Z,55.60
2019-03-31T13:16:12.054Z,56.00
2019-03-31T13:18:54.643Z,57.40
2019-03-31T13:21:44.092Z,56.40
2019-03-31T13:24:19.737Z,56.90
2019-03-31T13:27:03.028Z,57.80
2019-03-31T13:29:45.287Z,57.80
2019-03-31T13:32:21.968Z,58.10
2019-03-31T13:35:08.244Z,58.80
2019-03-31T13:37:49.909Z,60.10
2019-03-31T13:40:25.468Z,57.80
2019-03-31T13:43:08.191Z,56.60
2019-03-31T13:45:44.720Z,52.60
2019-03-31T13:48:27.301Z,53.80
2019-03-31T13:51:09.811Z,53.40
2019-03-31T13:53:45.728Z,53.40
2019-03-31T13:56:21.545Z,51.10
2019-03-31T13:59:03.988Z,52.20
2019-03-31T14:01:40.056Z,52.50
2019-03-31T14:04:22.564Z,52.60
2019-03-31T14:06:58.179Z,52.30
2019-03-31T14:09:41.155Z,54.40
2019-03-31T14:12:43.852Z,52.80
2019-03-31T14:15:33.127Z,54.50
2019-03-31T14:18:15.841Z,55.40
2019-03-31T14:20:52.317Z,56.10
2019-03-31T14:23:34.336Z,58.10
2019-03-31T14:26:10.867Z,59.80
2019-03-31T14:28:53.518Z,61.50
2019-03-31T14:31:32.378Z,59.60
2019-03-31T14:34:14.559Z,60.00
2019-03-31T14:36:50.824Z,60.50
2019-03-31T14:39:33.501Z,61.20
2019-03-31T14:42:15.862Z,61.30
2019-03-31T14:44:57.948Z,60.50
2019-03-31T14:47:34.741Z,60.80
2019-03-31T14:50:28.776Z,60.70
2019-03-31T14:53:12.725Z,62.40
2019-03-31T14:55:54.869Z,64.00
2019-03-31T14:58:37.894Z,65.20
2019-03-31T15:01:14.377Z,65.50
2019-03-31T15:03:56.273Z,64.80
2019-03-31T15:06:39.108Z,64.80
2019-03-31T15:09:28.649Z,65.00
2019-03-31T15:12:11.157Z,66.50
2019-03-31T15:14:47.294Z,67.30
2019-03-31T15:17:29.473Z,66.80
2019-03-31T15:20:12.503Z,66.80
2019-03-31T15:22:55.340Z,66.90
2019-03-31T15:25:38.185Z,66.60
2019-03-31T15:28:27.241Z,66.10
2019-03-31T15:31:09.268Z,66.80
2019-03-31T15:33:51.801Z,68.40
2019-03-31T15:36:34.435Z,69.70
2019-03-31T15:39:12.121Z,70.30
2019-03-31T15:41:54.129Z,68.90
2019-03-31T15:44:30.434Z,68.60
2019-03-31T15:47:13.016Z,68.70
2019-03-31T15:49:49.054Z,69.60
2019-03-31T15:52:32.401Z,69.80
2019-03-31T15:55:08.415Z,70.00
2019-03-31T15:57:52.214Z,70.60
2019-03-31T16:00:29.643Z,71.40
2019-03-31T16:03:12.055Z,70.30
2019-03-31T16:05:55.014Z,70.90
2019-03-31T16:08:31.379Z,70.70
2019-03-31T16:11:14.074Z,70.20
2019-03-31T16:13:57.122Z,70.30
2019-03-31T16:16:46.581Z,70.20
2019-03-31T16:19:29.223Z,69.40
2019-03-31T16:22:05.469Z,65.10
2019-03-31T16:24:49.701Z,64.40
2019-03-31T16:27:25.768Z,64.20
2019-03-31T16:30:08.691Z,65.00
2019-03-31T16:32:44.356Z,65.20
2019-03-31T16:35:26.907Z,65.50
2019-03-31T16:38:03.761Z,67.10
2019-03-31T16:40:46.825Z,67.80
2019-03-31T16:43:22.708Z,68.50
2019-03-31T16:46:04.914Z,69.20
2019-03-31T16:48:41.265Z,69.40
2019-03-31T16:51:24.636Z,69.40
2019-03-31T16:54:07.136Z,69.50
2019-03-31T16:56:49.679Z,69.70
2019-03-31T16:59:32.433Z,69.70
2019-03-31T17:02:08.388Z,70.30
2019-03-31T17:04:50.855Z,70.90
2019-03-31T17:07:33.497Z,71.00
2019-03-31T17:10:10.369Z,71.30
2019-03-31T17:12:52.996Z,71.90
2019-03-31T17:15:28.718Z,71.20
2019-03-31T17:18:11.613Z,71.70
2019-03-31T17:20:53.912Z,71.70
2019-03-31T17:23:43.027Z,71.90
2019-03-31T17:26:25.273Z,72.10
2019-03-31T17:29:00.918Z,72.70
2019-03-31T17:31:43.677Z,72.70
2019-03-31T17:34:25.985Z,73.10
2019-03-31T17:37:09.036Z,72.80
2019-03-31T17:40:05.438Z,73.40
2019-03-31T17:42:30.100Z,73.70
2019-03-31T17:45:12.370Z,73.80
2019-03-31T17:47:48.212Z,74.20
2019-03-31T17:50:31.177Z,74.40
2019-03-31T17:53:13.760Z,74.50
2019-03-31T17:55:56.824Z,74.70
2019-03-31T17:58:32.363Z,75.00
2019-03-31T18:01:15.547Z,75.30
2019-03-31T18:03:57.474Z,75.60
2019-03-31T18:06:40.025Z,75.70
2019-03-31T18:09:15.713Z,76.00
2019-03-31T18:11:58.274Z,76.00
2019-03-31T18:14:34.072Z,76.30
2019-03-31T18:17:16.537Z,76.50
2019-03-31T18:20:05.154Z,76.40
2019-03-31T18:22:47.054Z,77.00
2019-03-31T18:25:29.835Z,77.10
2019-03-31T18:28:12.167Z,78.00
2019-03-31T18:30:48.519Z,77.80
2019-03-31T18:33:31.493Z,78.40
2019-03-31T18:36:14.838Z,78.50
2019-03-31T18:38:50.607Z,78.70
2019-03-31T18:41:32.805Z,78.90
2019-03-31T18:44:15.305Z,79.00
2019-03-31T18:46:51.183Z,78.80
2019-03-31T18:49:33.921Z,78.80
2019-03-31T18:52:10.024Z,79.00
2019-03-31T18:54:56.458Z,78.70
2019-03-31T18:57:56.790Z,79.40
2019-03-31T19:00:34.392Z,79.30
2019-03-31T19:03:22.108Z,79.70
2019-03-31T19:06:15.377Z,80.40
2019-03-31T19:09:15.274Z,80.00
2019-03-31T19:12:11.485Z,80.20
2019-03-31T19:14:49.567Z,80.70
2019-03-31T19:17:33.766Z,80.50
2019-03-31T19:20:13.992Z,81.00
2019-03-31T19:23:04.609Z,81.60
2019-03-31T19:25:41.806Z,81.80
2019-03-31T19:28:33.466Z,81.90
2019-03-31T19:31:18.354Z,82.20
2019-03-31T19:34:11.085Z,82.40
2019-03-31T19:36:57.863Z,82.80
2019-03-31T19:39:57.730Z,83.10
2019-03-31T19:42:48.713Z,83.50
2019-03-31T19:45:38.467Z,84.30
2019-03-31T19:48:38.980Z,84.20
2019-03-31T19:51:21.602Z,84.50
2019-03-31T19:54:05.916Z,84.30
2019-03-31T19:56:43.291Z,84.50
2019-03-31T19:59:34.525Z,84.60
2019-03-31T20:02:25.619Z,84.20
2019-03-31T20:05:17.823Z,84.60
2019-03-31T20:08:14.744Z,84.80
2019-03-31T20:11:14.945Z,85.20
2019-03-31T20:13:52.575Z,85.70
2019-03-31T20:16:43.123Z,85.80
2019-03-31T20:19:23.749Z,85.80
2019-03-31T20:22:11.253Z,86.10
2019-03-31T20:24:49.561Z,85.70
2019-03-31T20:27:37.084Z,85.40
2019-03-31T20:30:19.219Z,85.00
2019-03-31T20:33:15.733Z,85.30
2019-03-31T20:36:02.207Z,85.20
2019-03-31T20:38:55.428Z,85.20
2019-03-31T20:41:34.475Z,86.10
2019-03-31T20:44:16.244Z,87.10
2019-03-31T20:46:58.428Z,88.30
2019-03-31T20:49:40.639Z,88.70
2019-03-31T20:52:16.983Z,89.30
2019-03-31T20:54:59.640Z,90.50
2019-03-31T20:57:42.020Z,90.20
2019-03-31T21:00:31.461Z,90.50
2019-03-31T21:03:07.213Z,90.70
2019-03-31T21:05:43.329Z,91.00
2019-03-31T21:08:27.790Z,91.20
2019-03-31T21:11:04.252Z,91.40
2019-03-31T21:13:47.470Z,91.60
2019-03-31T21:16:22.902Z,92.20
2019-03-31T21:19:05.881Z,92.00
2019-03-31T21:21:48.351Z,92.10
2019-03-31T21:24:31.247Z,92.10
2019-03-31T21:27:13.599Z,92.00
2019-03-31T21:29:56.767Z,92.10
2019-03-31T21:32:32.357Z,92.00
2019-03-31T21:35:15.476Z,92.10
2019-03-31T21:37:51.016Z,92.20
2019-03-31T21:40:33.595Z,92.00
2019-03-31T21:43:15.915Z,92.00
2019-03-31T21:46:00.161Z,92.60
2019-03-31T21:48:35.708Z,92.80
2019-03-31T21:51:18.809Z,93.70
2019-03-31T21:53:54.576Z,93.90
2019-03-31T21:56:37.000Z,93.90
2019-03-31T21:59:19.749Z,94.10
2019-03-31T22:01:55.531Z,94.20
2019-03-31T22:04:44.329Z,94.20
2019-03-31T22:07:27.331Z,94.20
2019-03-31T22:10:10.055Z,94.00
2019-03-31T22:12:52.675Z,94.00
2019-03-31T22:15:28.783Z,94.00
2019-03-31T22:18:11.001Z,94.00
2019-03-31T22:20:47.645Z,94.10
2019-03-31T22:23:29.954Z,94.30
2019-03-31T22:26:05.480Z,94.90
2019-03-31T22:28:48.135Z,94.90
2019-03-31T22:31:24.488Z,95.10
2019-03-31T22:34:06.377Z,95.30
2019-03-31T22:36:42.318Z,95.40
2019-03-31T22:39:24.636Z,95.50
2019-03-31T22:42:00.454Z,95.50
2019-03-31T22:44:42.146Z,95.50
2019-03-31T22:47:18.545Z,95.40
2019-03-31T22:50:01.160Z,95.50
2019-03-31T22:52:36.989Z,95.60
2019-03-31T22:55:20.213Z,95.80
2019-03-31T22:58:03.296Z,95.90
2019-03-31T23:00:38.929Z,95.90
2019-03-31T23:03:22.113Z,96.10
2019-03-31T23:06:04.276Z,96.20
2019-03-31T23:08:40.420Z,96.50
2019-03-31T23:11:22.710Z,96.60
2019-03-31T23:13:58.361Z,96.60
2019-03-31T23:16:40.768Z,96.70
2019-03-31T23:19:17.050Z,96.40
2019-03-31T23:21:53.108Z,96.40
2019-03-31T23:24:28.560Z,96.50
2019-03-31T23:27:05.018Z,96.40
2019-03-31T23:29:41.453Z,96.30
2019-03-31T23:32:23.639Z,95.50
2019-03-31T23:34:59.512Z,94.80
2019-03-31T23:37:42.355Z,94.60
2019-03-31T23:40:18.852Z,94.00
2019-03-31T23:43:01.495Z,93.60
2019-03-31T23:45:37.535Z,94.20
2019-03-31T23:48:19.734Z,94.50
2019-03-31T23:50:56.065Z,94.70
2019-03-31T23:53:38.989Z,95.30
2019-03-31T23:56:21.262Z,95.50
2019-03-31T23:59:10.859Z,95.30
